This is the latest recevied weather packets stored in our database for station/object CE4TQY-10. If no packets are shown the sender has not sent any weather packets the latest 10 day(s).
| Time | Temp. | Humidity | Pressure | Rain* | Wind** | Luminosity | Snow |
|---|---|---|---|---|---|---|---|
| 1777771107 | 15° C | 57% | 1020.1 hPa | - | - | - | - |
| 1777771053 | 15° C | 57% | 1020.1 hPa | - | - | - | - |
| 1777770152 | 15.56° C | 59% | 1019.9 hPa | - | - | - | - |
| 1777769251 | 16.67° C | 57% | 1020.3 hPa | - | - | - | - |
| 1777768350 | 16.67° C | 56% | 1020.1 hPa | - | - | - | - |
| 1777767449 | 18.33° C | 50% | 1020.3 hPa | - | - | - | - |
| 1777766548 | 17.22° C | 52% | 1020.1 hPa | - | - | - | - |
| 1777765647 | 17.22° C | 56% | 1019.7 hPa | - | - | - | - |
| 1777764747 | 17.22° C | 55% | 1019.5 hPa | - | - | - | - |
| 1777763846 | 17.78° C | 54% | 1019.3 hPa | - | - | - | - |
| 1777762945 | 18.33° C | 52% | 1019.1 hPa | - | - | - | - |
| 1777762044 | 18.89° C | 51% | 1018.7 hPa | - | - | - | - |
| 1777761144 | 19.44° C | 44% | 1018.3 hPa | - | - | - | - |
| 1777760242 | 20° C | 42% | 1018.2 hPa | - | - | - | - |
| 1777759341 | 20.56° C | 41% | 1018.2 hPa | - | - | - | - |
| 1777758440 | 21.11° C | 38% | 1018.1 hPa | - | - | - | - |
| 1777757539 | 21.67° C | 38% | 1017.9 hPa | - | - | - | - |
| 1777756638 | 22.22° C | 36% | 1018 hPa | - | - | - | - |
| 1777755738 | 22.78° C | 37% | 1018 hPa | - | - | - | - |
| 1777754836 | 22.78° C | 36% | 1018.1 hPa | - | - | - | - |
| 1777753935 | 23.33° C | 35% | 1018.1 hPa | - | - | - | - |
| 1777753034 | 23.89° C | 35% | 1018 hPa | - | - | - | - |
| 1777752133 | 23.89° C | 34% | 1018.1 hPa | - | - | - | - |
| 1777751232 | 23.89° C | 31% | 1018.1 hPa | - | - | - | - |
| 1777750331 | 23.89° C | 34% | 1017.9 hPa | - | - | - | - |
* Rain since midnight (hover to see other rain measurements)
** Current wind speed in m/s (hover to see current wind gust speed)